Terminal Aerodrome Forecast
Issued by NWS

Home | Current Version | Previous Version | Text Only | Print | Product List | Glossary On
Versions: 1 2 3 4 5 6 7 8 9 10 11 12 13 14 15 16 17 18 19 20 21 22 23 24 25
304
FTUS43 KDLH 252341
TAFHIB
TAF
KHIB 252341Z 2600/2624 12010KT P6SM VCSH SCT007 OVC070
     FM260500 12008KT 5SM BR BKN012
     FM260900 13006KT 3SM BR BKN006
     FM261600 17007KT P6SM BKN015
     FM261800 23008KT P6SM SCT025=

USA.gov is the U.S. government's official web portal to all federal, state and local government web resources and services.